Nearby METAR Reports

 

EGHI - Southampton Wx C, Hampshire, United Kingdom
Distance from station: SE 2mi, 3km
Updated: 20/04/2018 22:20
NOT Current
Clear
Clear
 Wind from NW
Wind: NW 1 mph , 2 km/h
Temperature: 17°C
Dew Point: 11°C
Humidity: 68%
Barometer: 1023 hPa
Summary: Clear
Visibility: greater than 7 miles , 10 km
2018/04/20 21:20 EGHI 202120Z 32001KT CAVOK 17/11 Q1023
EGVP - Middle Wallop, Hampshire, United Kingdom
Distance from station: NW 14mi, 23km
Updated: 21/04/2018 01:50
Clear
Clear
 Wind from NNW
Wind: NNW 5 mph , 7 km/h
Temperature: 12°C
Dew Point: 9°C
Humidity: 82%
Barometer: 1022 hPa
Clouds: Clear
Visibility: 6 miles , 10 km
2018/04/21 00:50 EGVP 210050Z AUTO 34004KT 9999 // NCD 12/09 Q1022
 
EGDM - Boscombe Down, Dorset, United Kingdom
Distance from station: NW 21mi, 34km
Updated: 21/04/2018 01:50
Clear
Clear
 Wind from NNW
Wind: NNW 7 mph , 11 km/h
Temperature: 11°C
Dew Point: 9°C
Humidity: 88%
Barometer: 1022 hPa
Clouds: Clear
Visibility: 6 miles , 10 km
2018/04/21 00:50 EGDM 210050Z AUTO 33006KT 9999 NCD 11/09 Q1022
EGHH - Bournemouth Airp, Dorset, United Kingdom
Distance from station: WSW 23mi, 38km
Updated: 20/04/2018 23:20
NOT Current
Clear
Clear
 Wind from WNW
Wind: WNW 3 mph , 6 km/h
Temperature: 12°C
Dew Point: 10°C
Humidity: 88%
Barometer: 1022 hPa
Summary: Clear
Visibility: greater than 7 miles , 10 km
2018/04/20 22:20 EGHH 202220Z 29003KT CAVOK 12/10 Q1022
 
EGVO - Odiham Raf, Hampshire, United Kingdom
Distance from station: NE 26mi, 42km
Updated: 21/04/2018 01:50
Clear
Clear
 Wind from NNE
Wind: NNE 3 mph , 6 km/h
Temperature: 13°C
Dew Point: 10°C
Humidity: 82%
Barometer: 1022 hPa
Clouds: Clear
Visibility: 6 miles , 10 km
2018/04/21 00:50 EGVO 210050Z AUTO 03003KT 9999 NCD 13/10 Q1022
EGLF - Farnborough, Hampshire, United Kingdom
Distance from station: NE 34mi, 56km
Updated: 20/04/2018 20:50
NOT Current
Clear
Clear
 Wind from N
Wind: N 7 mph , 11 km/h
Temperature: 19°C
Dew Point: 10°C
Humidity: 56%
Barometer: 1023 hPa
Summary: Clear
Visibility: greater than 7 miles , 10 km
2018/04/20 19:50 EGLF 201950Z 36006KT CAVOK 19/10 Q1023
 
EGDL - Lyneham Raf, Wiltshire, United Kingdom
Distance from station: NW 45mi, 72km
Updated: 21/06/2013 08:50
NOT Current
Mostly cloudy
Mostly cloudy
 Wind from WSW
Wind: WSW 9 mph , 15 km/h
Temperature: 14°C
Dew Point: 14°C
Humidity: 100%
Barometer: 1010 hPa
Clouds: Mostly cloudy
Cloud details: Mostly cloudy 61 m
Mostly cloudy 427 m
2013/06/21 07:50 EGDL 210750Z AUTO 25008KT //// // BKN002/// BKN014/// 14/14 Q1010
EGUB - Benson Raf, Oxfordshire, United Kingdom
Distance from station: NNE 47mi, 76km
Updated: 21/04/2018 01:50
Clear
Clear
 Wind from ENE
Wind: ENE 2 mph , 4 km/h
Temperature: 10°C
Dew Point: 9°C
Humidity: 94%
Barometer: 1022 hPa
Clouds: Clear
Visibility: 6 miles , 10 km
2018/04/21 00:50 EGUB 210050Z AUTO 06002KT 9999 // NCD 10/09 Q1022
 
EGKA - Shoreham-By-Sea, West Sussex, United Kingdom
Distance from station: E 48mi, 77km
Updated: 20/04/2018 19:50
NOT Current
Clear
Clear
 Wind from SSE
Wind: SSE 2 mph , 4 km/h
Temperature: 13°C
Dew Point: 9°C
Humidity: 77%
Barometer: 1022 hPa
Summary: Clear
Visibility: greater than 7 miles , 10 km
2018/04/20 18:50 EGKA 201850Z 16002KT CAVOK 13/09 Q1022
EGVA - Fairford Raf, Gloucestershire, United Kingdom
Distance from station: NNW 51mi, 82km
Updated: 21/04/2018 02:14
Haze, Clear
Haze, Clear
 Wind from calm
Wind: Calm
Temperature: 12°C
Dew Point: 8°C
Humidity: 77%
Summary: Haze
Clouds: Clear
Visibility: 4 miles , 6 km
2018/04/21 01:14 EGVA 210114Z AUTO 00000KT 6000 HZ CLR 12/08 M RMK AO2 SLPNO $
 
EGDY - Yeovilton (navy), Somerset, United Kingdom
Distance from station: W 54mi, 87km
Updated: 21/04/2018 01:50
Clear
Clear
 Wind from SW
Wind: SW 1 mph , 2 km/h
Temperature: 9°C
Dew Point: 7°C
Humidity: 87%
Barometer: 1023 hPa
Clouds: Clear
Visibility: 6 miles , 10 km
2018/04/21 00:50 EGDY 210050Z AUTO 23001KT 9999 NCD 09/07 Q1023
EGKK - London/Gatwick A, West Sussex, United Kingdom
Distance from station: ENE 54mi, 87km
Updated: 21/04/2018 02:20
Haze, Partly cloudy
Haze, Partly cloudy
 Wind from ENE
Wind: ENE 6 mph , 9 km/h
Temperature: 11°C
Dew Point: 9°C
Humidity: 88%
Barometer: 1022 hPa
Summary: Haze
Clouds: Partly cloudy
Visibility: 3 miles , 5 km
2018/04/21 01:20 EGKK 210120Z 07005KT 5000 HZ NSC 11/09 Q1022
 
EGLL - London/Heathrow, Middlesex, United Kingdom
Distance from station: NE 54mi, 87km
Updated: 21/04/2018 02:20
Clear
Clear
 Wind from ENE
Wind: ENE 5 mph , 7 km/h
Temperature: 14°C
Dew Point: 10°C
Humidity: 77%
Barometer: 1023 hPa
Clouds: Clear
Visibility: 5 miles , 8 km
2018/04/21 01:20 EGLL 210120Z AUTO 06004KT 8000 NCD 14/10 Q1023 NOSIG
EGVN - Brize Norton Raf, Oxfordshire, United Kingdom
Distance from station: N 56mi, 90km
Updated: 21/04/2018 01:50
Clear
Clear
 Wind from NNE
Wind: NNE 7 mph , 11 km/h
Temperature: 12°C
Dew Point: 8°C
Humidity: 77%
Barometer: 1023 hPa
Summary: Clear
Visibility: greater than 7 miles , 10 km
2018/04/21 00:50 EGVN 210050Z 03006KT CAVOK 12/08 Q1023 BLU NOSIG
 
EGWU - Northolt Raf, Middlesex, United Kingdom
Distance from station: NE 58mi, 93km
Updated: 21/04/2018 01:50
Clear
Clear
 Wind from ENE
Wind: ENE 5 mph , 7 km/h
Temperature: 13°C
Dew Point: 10°C
Humidity: 82%
Barometer: 1022 hPa
Clouds: Clear
Visibility: 6 miles , 10 km
2018/04/21 00:50 EGWU 210050Z AUTO 07004KT 9999 // NCD 13/10 Q1022
EGGD - Bristol/Lulsgate, Somerset, United Kingdom
Distance from station: WNW 64mi, 103km
Updated: 21/04/2018 02:20
Clear
Clear
 Wind from ENE
Wind: ENE 9 mph , 15 km/h
Temperature: 10°C
Wind Chill: 8°C
Dew Point: 8°C
Humidity: 88%
Barometer: 1023 hPa
Clouds: Clear
Visibility: 6 miles , 10 km
2018/04/21 01:20 EGGD 210120Z AUTO 06008KT 9999 NCD 10/08 Q1023
 
EGKB - Biggin Hill, Kent,United Kingdom
Distance from station: ENE 65mi, 105km
Updated: 20/04/2018 22:20
NOT Current
Partly cloudy
Partly cloudy
 Wind from NE
Wind: NE 8 mph , 13 km/h
Temperature: 12°C
Dew Point: 10°C
Humidity: 88%
Barometer: 1024 hPa
Clouds: Partly cloudy
Visibility: 4 miles , 7 km
2018/04/20 21:20 EGKB 202120Z 05007KT 7000 NSC 12/10 Q1024
EGLC - London City Airp, Greater London, United Kingdom
Distance from station: ENE 72mi, 116km
Updated: 21/04/2018 02:20
Clear
Clear
 Wind from E
Wind: E 8 mph , 13 km/h
Temperature: 13°C
Dew Point: 10°C
Humidity: 82%
Barometer: 1023 hPa
Clouds: Clear
Visibility: 4 miles , 6 km
2018/04/21 01:20 EGLC 210120Z AUTO 08007KT 6000 NCD 13/10 Q1023
 
EGBJ - Staverton, Northamptonshire, United Kingdom
Distance from station: NNW 73mi, 117km
Updated: 20/04/2018 19:20
NOT Current
Clear
Clear
 Wind from calm
Wind: Calm
Temperature: 20°C
Dew Point: 11°C
Humidity: 56%
Barometer: 1023 hPa
Summary: Clear
Visibility: greater than 7 miles , 10 km
2018/04/20 18:20 EGBJ 201820Z 00000KT CAVOK 20/11 Q1023
EGGW - Luton Airport, Bedfordshire, United Kingdom
Distance from station: NE 76mi, 122km
Updated: 21/04/2018 02:20
Mostly cloudy
Mostly cloudy
 Wind from E
Wind: E 3 mph , 6 km/h
Temperature: 11°C
Dew Point: 9°C
Humidity: 88%
Barometer: 1023 hPa
Clouds: Mostly cloudy
Visibility: 6 miles , 10 km
Cloud details: Mostly cloudy 1372 m
2018/04/21 01:20 EGGW 210120Z AUTO 09003KT 9999 BKN045 11/09 Q1023